createdAt,value
2019-04-26T00:00:44.215Z,12.60
2019-04-26T00:03:44.513Z,12.60
2019-04-26T00:06:33.874Z,12.60
2019-04-26T00:09:26.826Z,12.60
2019-04-26T00:12:34.409Z,12.60
2019-04-26T00:15:45.882Z,12.60
2019-04-26T00:18:35.378Z,12.60
2019-04-26T00:21:24.629Z,12.50
2019-04-26T00:24:15.266Z,12.50
2019-04-26T00:27:04.165Z,12.60
2019-04-26T00:29:54.083Z,12.50
2019-04-26T00:32:24.275Z,12.50
2019-04-26T00:35:14.004Z,12.50
2019-04-26T00:38:02.681Z,12.60
2019-04-26T00:40:53.171Z,12.60
2019-04-26T00:43:42.739Z,12.60
2019-04-26T00:46:33.267Z,12.60
2019-04-26T00:49:23.274Z,12.60
2019-04-26T00:52:15.579Z,12.60
2019-04-26T00:55:05.556Z,12.60
2019-04-26T00:57:54.434Z,12.60
2019-04-26T01:00:43.278Z,12.70
2019-04-26T01:03:32.106Z,12.60
2019-04-26T01:06:25.094Z,12.60
2019-04-26T01:09:15.894Z,12.60
2019-04-26T01:12:04.840Z,12.70
2019-04-26T01:14:54.584Z,12.70
2019-04-26T01:17:43.715Z,12.70
2019-04-26T01:20:34.897Z,12.70
2019-04-26T01:23:27.301Z,12.70
2019-04-26T01:26:23.190Z,12.70
2019-04-26T01:29:14.655Z,12.70
2019-04-26T01:32:11.382Z,12.70
2019-04-26T01:34:59.948Z,12.70
2019-04-26T01:37:50.895Z,12.70
2019-04-26T01:40:41.126Z,12.60
2019-04-26T01:43:53.192Z,12.60
2019-04-26T01:46:45.597Z,12.50
2019-04-26T01:49:35.316Z,12.50
2019-04-26T01:52:25.643Z,12.50
2019-04-26T01:55:16.109Z,12.40
2019-04-26T01:58:07.990Z,12.40
2019-04-26T02:01:05.934Z,12.40
2019-04-26T02:03:54.984Z,12.40
2019-04-26T02:06:44.176Z,12.40
2019-04-26T02:09:32.956Z,12.40
2019-04-26T02:12:23.471Z,12.40
2019-04-26T02:15:13.427Z,12.40
2019-04-26T02:18:03.297Z,12.30
2019-04-26T02:21:05.972Z,12.20
2019-04-26T02:24:13.453Z,12.10
2019-04-26T02:27:05.466Z,12.10
2019-04-26T02:29:55.023Z,12.10
2019-04-26T02:32:44.437Z,12.10
2019-04-26T02:35:34.109Z,12.10
2019-04-26T02:38:23.490Z,12.00
2019-04-26T02:41:14.105Z,11.90
2019-04-26T02:44:06.295Z,11.80
2019-04-26T02:47:37.273Z,11.80
2019-04-26T02:50:42.186Z,11.70
2019-04-26T02:53:44.307Z,11.60
2019-04-26T02:56:40.133Z,11.50
2019-04-26T02:59:42.289Z,11.50
2019-04-26T03:02:33.282Z,11.40
2019-04-26T03:05:23.627Z,11.30
2019-04-26T03:08:19.586Z,11.30
2019-04-26T03:11:19.707Z,11.20
2019-04-26T03:14:27.221Z,11.10
2019-04-26T03:17:32.405Z,11.00
2019-04-26T03:20:25.535Z,11.00
2019-04-26T03:23:57.106Z,10.90
2019-04-26T03:26:43.447Z,10.90
2019-04-26T03:29:46.366Z,10.90
2019-04-26T03:33:01.841Z,10.90
2019-04-26T03:36:29.381Z,10.90
2019-04-26T03:39:44.393Z,10.90
2019-04-26T03:42:44.138Z,11.00
2019-04-26T03:45:49.364Z,11.10
2019-04-26T03:48:53.962Z,11.10
2019-04-26T03:52:08.529Z,11.00
2019-04-26T03:55:01.029Z,11.00
2019-04-26T03:57:54.785Z,11.00
2019-04-26T04:00:34.975Z,11.00
2019-04-26T04:03:47.953Z,11.00
2019-04-26T04:06:56.543Z,11.00
2019-04-26T04:09:30.747Z,11.10
2019-04-26T04:12:27.283Z,11.10
2019-04-26T04:15:21.774Z,11.10
2019-04-26T04:18:16.786Z,11.10
2019-04-26T04:21:34.901Z,11.10
2019-04-26T04:24:44.633Z,11.10
2019-04-26T04:27:44.059Z,11.20
2019-04-26T04:30:56.526Z,11.20
2019-04-26T04:34:09.988Z,11.20
2019-04-26T04:37:02.338Z,11.20
2019-04-26T04:40:32.986Z,11.20
2019-04-26T04:43:38.367Z,11.20
2019-04-26T04:47:35.152Z,11.30
2019-04-26T04:50:40.950Z,11.30
2019-04-26T04:54:06.525Z,11.30
2019-04-26T04:57:25.319Z,11.30
2019-04-26T05:00:54.101Z,11.30
2019-04-26T05:04:20.199Z,11.30
2019-04-26T05:07:45.968Z,11.40
2019-04-26T05:10:46.382Z,11.40
2019-04-26T05:13:46.376Z,11.40
2019-04-26T05:17:02.577Z,11.40
2019-04-26T05:20:22.997Z,11.40
2019-04-26T05:24:12.116Z,11.30
2019-04-26T05:27:48.361Z,11.40
2019-04-26T05:31:19.454Z,11.40
2019-04-26T05:34:22.185Z,11.40
2019-04-26T05:37:24.249Z,11.40
2019-04-26T05:40:49.975Z,11.40
2019-04-26T05:44:15.437Z,11.40
2019-04-26T05:47:35.128Z,11.50
2019-04-26T05:51:21.704Z,11.60
2019-04-26T05:54:58.626Z,11.60
2019-04-26T05:58:16.353Z,11.60
2019-04-26T06:01:27.817Z,11.60
2019-04-26T06:04:55.221Z,11.70
2019-04-26T06:08:03.798Z,11.70
2019-04-26T06:11:00.354Z,11.70
2019-04-26T06:14:14.138Z,11.70
2019-04-26T06:17:33.550Z,11.70
2019-04-26T06:20:49.717Z,11.70
2019-04-26T06:24:05.521Z,11.70
2019-04-26T06:27:37.407Z,11.70
2019-04-26T06:30:57.765Z,11.80
2019-04-26T06:34:15.221Z,11.80
2019-04-26T06:37:32.153Z,11.80
2019-04-26T06:40:54.943Z,11.90
2019-04-26T06:43:50.151Z,11.80
2019-04-26T06:47:10.605Z,11.80
2019-04-26T06:50:29.097Z,11.80
2019-04-26T06:53:49.905Z,11.80
2019-04-26T06:57:27.279Z,11.90
2019-04-26T07:00:23.427Z,11.90
2019-04-26T07:03:43.784Z,11.80
2019-04-26T07:06:38.503Z,11.90
2019-04-26T07:09:30.375Z,11.90
2019-04-26T07:12:39.175Z,12.00
2019-04-26T07:16:19.660Z,12.00
2019-04-26T07:20:07.909Z,12.00
2019-04-26T07:23:55.921Z,12.00
2019-04-26T07:27:17.648Z,12.00
2019-04-26T07:30:41.672Z,12.00
2019-04-26T07:33:45.868Z,12.00
2019-04-26T07:37:21.712Z,12.00
2019-04-26T07:40:52.655Z,12.00
2019-04-26T07:44:39.371Z,12.00
2019-04-26T07:48:20.440Z,12.10
2019-04-26T07:52:11.376Z,12.10
2019-04-26T07:55:51.354Z,12.10
2019-04-26T07:59:30.684Z,12.20
2019-04-26T08:02:41.974Z,12.20
2019-04-26T08:05:47.819Z,12.20
2019-04-26T08:08:46.041Z,12.20
2019-04-26T08:11:44.730Z,12.20
2019-04-26T08:15:26.245Z,12.40
2019-04-26T08:18:23.075Z,12.50
2019-04-26T08:21:31.734Z,12.70
2019-04-26T08:24:23.258Z,12.80
2019-04-26T08:27:23.192Z,12.90
2019-04-26T08:30:17.445Z,13.00
2019-04-26T08:33:11.318Z,13.00
2019-04-26T08:36:01.210Z,13.10
2019-04-26T08:38:52.600Z,13.20
2019-04-26T08:41:43.765Z,13.20
2019-04-26T08:44:57.293Z,13.30
2019-04-26T08:47:54.258Z,13.40
2019-04-26T08:50:47.299Z,13.60
2019-04-26T08:53:39.625Z,13.60
2019-04-26T08:56:33.622Z,13.70
2019-04-26T08:59:27.242Z,13.70
2019-04-26T09:02:36.991Z,13.70
2019-04-26T09:06:05.731Z,13.70
2019-04-26T09:08:58.081Z,13.60
2019-04-26T09:11:59.090Z,13.60
2019-04-26T09:14:45.022Z,13.60
2019-04-26T09:17:34.663Z,13.70
2019-04-26T09:20:29.718Z,13.70
2019-04-26T09:23:40.370Z,13.70
2019-04-26T09:26:35.440Z,13.70
2019-04-26T09:29:26.304Z,13.70
2019-04-26T09:32:18.346Z,13.70
2019-04-26T09:35:11.270Z,13.80
2019-04-26T09:37:58.476Z,13.80
2019-04-26T09:40:48.296Z,13.90
2019-04-26T09:43:45.370Z,13.80
2019-04-26T09:46:48.384Z,13.80
2019-04-26T09:50:15.348Z,13.90
2019-04-26T09:53:02.008Z,14.00
2019-04-26T09:55:51.026Z,14.30
2019-04-26T09:58:40.270Z,14.50
2019-04-26T10:01:30.414Z,14.70
2019-04-26T10:04:20.018Z,14.80
2019-04-26T10:07:09.390Z,14.80
2019-04-26T10:10:00.887Z,14.90
2019-04-26T10:12:57.024Z,15.00
2019-04-26T10:15:58.235Z,14.90
2019-04-26T10:18:50.210Z,15.00
2019-04-26T10:21:39.173Z,15.10
2019-04-26T10:24:28.451Z,15.20
2019-04-26T10:27:18.018Z,15.30
2019-04-26T10:30:09.716Z,15.20
2019-04-26T10:33:02.155Z,15.00
2019-04-26T10:35:52.492Z,14.90
2019-04-26T10:38:39.789Z,15.00
2019-04-26T10:41:28.974Z,15.10
2019-04-26T10:44:18.557Z,15.20
2019-04-26T10:47:08.144Z,15.10
2019-04-26T10:49:59.187Z,14.90
2019-04-26T10:53:07.662Z,14.90
2019-04-26T10:56:14.456Z,15.00
2019-04-26T10:58:58.763Z,15.10
2019-04-26T11:01:47.301Z,15.20
2019-04-26T11:04:37.358Z,15.40
2019-04-26T11:07:26.985Z,15.50
2019-04-26T11:10:16.518Z,15.60
2019-04-26T11:13:05.528Z,15.80
2019-04-26T11:15:54.851Z,15.90
2019-04-26T11:18:44.095Z,16.10
2019-04-26T11:21:33.793Z,16.20
2019-04-26T11:24:22.992Z,16.40
2019-04-26T11:27:12.487Z,16.50
2019-04-26T11:30:11.131Z,16.60
2019-04-26T11:32:51.932Z,16.60
2019-04-26T11:35:40.663Z,16.60
2019-04-26T11:38:31.291Z,16.50
2019-04-26T11:41:21.061Z,16.60
2019-04-26T11:44:10.847Z,16.60
2019-04-26T11:47:03.243Z,16.80
2019-04-26T11:49:51.217Z,16.90
2019-04-26T11:52:40.366Z,16.90
2019-04-26T11:55:31.413Z,17.00
2019-04-26T11:58:22.666Z,17.00
2019-04-26T12:01:12.974Z,17.00
2019-04-26T12:04:33.660Z,17.00
2019-04-26T12:07:26.675Z,17.10
2019-04-26T12:10:16.295Z,17.10
2019-04-26T12:13:06.295Z,17.10
2019-04-26T12:15:55.644Z,17.20
2019-04-26T12:18:45.714Z,17.40
2019-04-26T12:21:35.292Z,17.50
2019-04-26T12:24:25.339Z,17.70
2019-04-26T12:27:15.428Z,17.70
2019-04-26T12:30:04.893Z,17.60
2019-04-26T12:32:53.695Z,17.60
2019-04-26T12:35:43.481Z,17.50
2019-04-26T12:38:32.661Z,17.50
2019-04-26T12:41:39.212Z,17.50
2019-04-26T12:44:12.805Z,17.60
2019-04-26T12:47:15.565Z,17.70
2019-04-26T12:50:04.473Z,17.70
2019-04-26T12:52:55.600Z,17.50
2019-04-26T12:55:43.207Z,17.50
2019-04-26T12:58:32.232Z,17.40
2019-04-26T13:01:22.220Z,17.50
2019-04-26T13:04:11.458Z,17.40
2019-04-26T13:07:07.182Z,17.40
2019-04-26T13:10:14.452Z,17.60
2019-04-26T13:13:13.503Z,17.60
2019-04-26T13:16:16.906Z,17.70
2019-04-26T13:19:06.281Z,17.80
2019-04-26T13:21:55.376Z,17.80
2019-04-26T13:24:44.912Z,17.90
2019-04-26T13:27:34.361Z,18.10
2019-04-26T13:30:32.706Z,18.10
2019-04-26T13:33:14.490Z,18.20
2019-04-26T13:36:04.169Z,18.10
2019-04-26T13:38:53.657Z,18.10
2019-04-26T13:41:28.030Z,18.10
2019-04-26T13:44:01.206Z,18.20
2019-04-26T13:46:58.291Z,18.20
2019-04-26T13:50:01.611Z,18.20
2019-04-26T13:52:50.755Z,18.40
2019-04-26T13:55:40.002Z,18.70
2019-04-26T13:58:29.601Z,18.70
2019-04-26T14:01:19.743Z,18.60
2019-04-26T14:04:09.023Z,18.70
2019-04-26T14:06:58.661Z,18.60
2019-04-26T14:09:47.684Z,18.50
2019-04-26T14:12:37.471Z,18.60
2019-04-26T14:15:26.919Z,18.80
2019-04-26T14:18:15.815Z,19.00
2019-04-26T14:21:04.973Z,19.10
2019-04-26T14:24:13.041Z,19.10
2019-04-26T14:27:05.250Z,19.00
2019-04-26T14:29:54.279Z,18.90
2019-04-26T14:32:43.884Z,18.80
2019-04-26T14:35:33.467Z,18.90
2019-04-26T14:38:27.998Z,18.90
2019-04-26T14:41:13.786Z,18.70
2019-04-26T14:44:14.790Z,18.60
2019-04-26T14:46:56.789Z,18.30
2019-04-26T14:49:44.023Z,18.10
2019-04-26T14:52:34.514Z,18.00
2019-04-26T14:55:23.828Z,17.90
2019-04-26T14:58:12.867Z,17.90
2019-04-26T15:01:04.399Z,18.00
2019-04-26T15:04:11.201Z,18.40
2019-04-26T15:07:02.040Z,18.50
2019-04-26T15:09:52.929Z,18.80
2019-04-26T15:12:46.899Z,18.90
2019-04-26T15:15:34.657Z,18.90
2019-04-26T15:18:23.961Z,19.00
2019-04-26T15:21:12.967Z,19.20
2019-04-26T15:24:02.883Z,19.30
2019-04-26T15:26:52.860Z,19.30
2019-04-26T15:29:42.410Z,19.40
2019-04-26T15:32:35.135Z,19.40
2019-04-26T15:35:23.221Z,19.60
2019-04-26T15:38:12.337Z,19.70
2019-04-26T15:41:22.255Z,19.60
2019-04-26T15:44:36.720Z,19.60
2019-04-26T15:47:34.218Z,19.80
2019-04-26T15:50:33.036Z,20.00
2019-04-26T15:53:23.764Z,20.10
2019-04-26T15:56:16.301Z,20.10
2019-04-26T15:59:03.912Z,20.10
2019-04-26T16:01:56.134Z,20.10
2019-04-26T16:04:47.394Z,19.90
2019-04-26T16:07:34.617Z,19.60
2019-04-26T16:10:25.674Z,19.40
2019-04-26T16:13:21.063Z,19.30
2019-04-26T16:16:04.447Z,19.30
2019-04-26T16:18:56.790Z,19.40
2019-04-26T16:21:48.234Z,19.70
2019-04-26T16:24:35.107Z,20.00
2019-04-26T16:27:30.732Z,20.20
2019-04-26T16:30:37.323Z,20.20
2019-04-26T16:33:28.417Z,20.20
2019-04-26T16:36:18.298Z,20.10
2019-04-26T16:39:10.187Z,20.10
2019-04-26T16:42:04.448Z,20.00
2019-04-26T16:44:49.999Z,20.10
2019-04-26T16:47:44.993Z,20.10
2019-04-26T16:50:32.201Z,20.00
2019-04-26T16:53:37.708Z,19.90
2019-04-26T16:56:12.587Z,19.70
2019-04-26T16:59:02.855Z,19.60
2019-04-26T17:01:53.608Z,19.50
2019-04-26T17:04:43.685Z,19.40
2019-04-26T17:07:39.145Z,19.30
2019-04-26T17:10:24.793Z,19.10
2019-04-26T17:13:14.375Z,18.90
2019-04-26T17:16:03.962Z,18.80
2019-04-26T17:18:55.618Z,18.70
2019-04-26T17:21:52.319Z,18.70
2019-04-26T17:24:58.908Z,18.60
2019-04-26T17:27:48.646Z,18.60
2019-04-26T17:30:40.981Z,18.60
2019-04-26T17:33:29.120Z,18.60
2019-04-26T17:36:18.597Z,18.60
2019-04-26T17:39:10.923Z,18.40
2019-04-26T17:42:01.254Z,18.30
2019-04-26T17:44:51.648Z,18.20
2019-04-26T17:47:42.424Z,18.20
2019-04-26T17:50:35.403Z,18.10
2019-04-26T17:53:30.723Z,18.00
2019-04-26T17:56:13.677Z,18.00
2019-04-26T17:59:09.003Z,17.90
2019-04-26T18:02:00.874Z,17.80
2019-04-26T18:04:44.135Z,17.70
2019-04-26T18:07:40.760Z,17.70
2019-04-26T18:10:23.594Z,17.60
2019-04-26T18:13:16.440Z,17.50
2019-04-26T18:16:03.777Z,17.40
2019-04-26T18:19:10.519Z,17.30
2019-04-26T18:22:04.483Z,17.30
2019-04-26T18:24:54.278Z,17.20
2019-04-26T18:27:44.208Z,17.20
2019-04-26T18:30:18.342Z,17.20
2019-04-26T18:33:08.089Z,17.10
2019-04-26T18:35:57.687Z,17.10
2019-04-26T18:38:48.677Z,17.00
2019-04-26T18:41:37.911Z,17.00
2019-04-26T18:44:36.300Z,16.90
2019-04-26T18:47:28.009Z,16.80
2019-04-26T18:50:14.597Z,16.70
2019-04-26T18:53:41.557Z,16.70
2019-04-26T18:56:36.987Z,16.60
2019-04-26T18:59:23.395Z,16.50
2019-04-26T19:02:18.638Z,16.40
2019-04-26T19:05:05.380Z,16.30
2019-04-26T19:07:55.370Z,16.20
2019-04-26T19:10:44.764Z,16.20
2019-04-26T19:14:11.330Z,16.10
2019-04-26T19:17:37.166Z,16.00
2019-04-26T19:20:32.606Z,15.90
2019-04-26T19:23:22.778Z,15.90
2019-04-26T19:26:13.664Z,15.80
2019-04-26T19:29:09.902Z,15.80
2019-04-26T19:31:56.551Z,15.70
2019-04-26T19:34:34.399Z,15.70
2019-04-26T19:37:23.657Z,15.60
2019-04-26T19:40:13.757Z,15.50
2019-04-26T19:43:07.839Z,15.50
2019-04-26T19:46:06.528Z,15.40
2019-04-26T19:49:14.512Z,15.40
2019-04-26T19:52:22.138Z,15.30
2019-04-26T19:55:33.661Z,15.30
2019-04-26T19:58:25.081Z,15.20
2019-04-26T20:00:55.450Z,15.10
2019-04-26T20:03:25.860Z,15.10
2019-04-26T20:05:56.344Z,15.00
2019-04-26T20:08:29.347Z,15.00
2019-04-26T20:10:59.094Z,14.90
2019-04-26T20:13:31.576Z,14.90
2019-04-26T20:16:05.019Z,14.80
2019-04-26T20:18:38.757Z,14.70
2019-04-26T20:21:06.581Z,14.70
2019-04-26T20:23:38.295Z,14.60
2019-04-26T20:26:09.451Z,14.60
2019-04-26T20:28:40.055Z,14.50
2019-04-26T20:31:32.084Z,14.50
2019-04-26T20:34:05.527Z,14.40
2019-04-26T20:36:40.578Z,14.40
2019-04-26T20:39:07.785Z,14.30
2019-04-26T20:41:38.027Z,14.30
2019-04-26T20:44:10.126Z,14.30
2019-04-26T20:46:40.502Z,14.20
2019-04-26T20:49:11.433Z,14.20
2019-04-26T20:51:46.025Z,14.20
2019-04-26T20:54:16.245Z,14.10
2019-04-26T20:56:46.222Z,14.10
2019-04-26T20:59:36.238Z,14.10
2019-04-26T21:02:26.252Z,14.00
2019-04-26T21:05:15.510Z,14.00
2019-04-26T21:08:05.083Z,14.00
2019-04-26T21:10:56.048Z,14.00
2019-04-26T21:13:44.936Z,14.00
2019-04-26T21:16:34.571Z,14.00
2019-04-26T21:19:24.169Z,14.00
2019-04-26T21:22:13.743Z,14.10
2019-04-26T21:25:11.842Z,14.10
2019-04-26T21:28:21.712Z,14.10
2019-04-26T21:31:22.639Z,14.10
2019-04-26T21:34:24.853Z,14.10
2019-04-26T21:37:34.197Z,14.10
2019-04-26T21:40:29.044Z,14.10
2019-04-26T21:43:18.216Z,14.00
2019-04-26T21:46:08.543Z,13.90
2019-04-26T21:48:57.585Z,13.80
2019-04-26T21:51:51.315Z,13.80
2019-04-26T21:54:37.687Z,13.80
2019-04-26T21:57:28.277Z,13.80
2019-04-26T22:00:36.397Z,13.80
2019-04-26T22:03:25.725Z,13.90
2019-04-26T22:06:15.626Z,13.90
2019-04-26T22:09:20.328Z,14.00
2019-04-26T22:12:13.066Z,14.00
2019-04-26T22:15:20.146Z,14.00
2019-04-26T22:18:21.294Z,14.10
2019-04-26T22:21:28.902Z,14.20
2019-04-26T22:24:23.399Z,14.20
2019-04-26T22:27:17.267Z,14.20
2019-04-26T22:30:05.070Z,14.20
2019-04-26T22:32:58.058Z,14.20
2019-04-26T22:35:44.134Z,14.20
2019-04-26T22:38:33.991Z,14.20
2019-04-26T22:41:24.396Z,14.20
2019-04-26T22:44:24.841Z,14.20
2019-04-26T22:47:19.846Z,14.20
2019-04-26T22:50:09.131Z,14.20
2019-04-26T22:52:58.345Z,14.20
2019-04-26T22:55:47.321Z,14.20
2019-04-26T22:58:20.619Z,14.20
2019-04-26T23:01:10.574Z,14.10
2019-04-26T23:03:59.944Z,14.10
2019-04-26T23:06:49.184Z,14.10
2019-04-26T23:09:38.165Z,14.20
2019-04-26T23:12:46.370Z,14.20
2019-04-26T23:16:00.706Z,14.20
2019-04-26T23:19:04.369Z,14.10
2019-04-26T23:21:56.097Z,14.10
2019-04-26T23:24:49.190Z,14.10
2019-04-26T23:27:35.698Z,14.00
2019-04-26T23:30:27.784Z,14.00
2019-04-26T23:33:15.239Z,13.90
2019-04-26T23:36:04.819Z,13.90
2019-04-26T23:38:53.838Z,13.80
2019-04-26T23:41:44.524Z,13.80
2019-04-26T23:44:36.899Z,13.70
2019-04-26T23:47:25.615Z,13.60
2019-04-26T23:50:14.910Z,13.60
2019-04-26T23:53:03.602Z,13.60
2019-04-26T23:55:52.877Z,13.50
2019-04-26T23:58:23.196Z,13.50
